createdAt,value
2019-02-22T00:04:05.665Z,7.60
2019-02-22T00:06:46.129Z,8.20
2019-02-22T00:09:25.958Z,8.10
2019-02-22T00:12:05.218Z,7.30
2019-02-22T00:14:45.206Z,7.90
2019-02-22T00:17:24.950Z,7.00
2019-02-22T00:20:04.819Z,7.70
2019-02-22T00:22:45.034Z,8.30
2019-02-22T00:25:25.006Z,7.90
2019-02-22T00:28:05.127Z,7.80
2019-02-22T00:30:45.185Z,9.00
2019-02-22T00:36:37.381Z,8.10
2019-02-22T00:39:17.437Z,8.10
2019-02-22T00:41:57.468Z,8.40
2019-02-22T00:44:36.664Z,8.20
2019-02-22T00:47:16.898Z,7.60
2019-02-22T00:49:56.797Z,8.30
2019-02-22T00:52:36.906Z,8.20
2019-02-22T00:55:17.050Z,8.10
2019-02-22T00:57:56.978Z,7.90
2019-02-22T01:00:37.271Z,8.10
2019-02-22T01:03:17.218Z,8.20
2019-02-22T01:05:57.123Z,8.10
2019-02-22T01:08:37.221Z,8.10
2019-02-22T01:11:16.511Z,7.90
2019-02-22T01:13:56.237Z,8.60
2019-02-22T01:16:36.226Z,8.30
2019-02-22T01:19:15.418Z,8.20
2019-02-22T01:21:55.670Z,8.40
2019-02-22T01:24:35.322Z,8.30
2019-02-22T01:27:15.391Z,8.80
2019-02-22T01:29:55.386Z,8.00
2019-02-22T01:32:35.492Z,8.10
2019-02-22T01:35:15.561Z,8.10
2019-02-22T01:37:54.689Z,8.80
2019-02-22T01:40:43.248Z,8.10
2019-02-22T01:43:15.850Z,8.20
2019-02-22T01:45:55.045Z,8.20
2019-02-22T01:48:35.078Z,8.10
2019-02-22T01:51:15.056Z,8.10
2019-02-22T01:53:54.985Z,8.00
2019-02-22T01:56:34.837Z,9.60
2019-02-22T01:59:14.784Z,8.20
2019-02-22T02:01:55.310Z,8.40
2019-02-22T02:04:35.077Z,8.50
2019-02-22T02:07:15.192Z,8.50
2019-02-22T02:09:55.273Z,8.10
2019-02-22T02:12:35.569Z,8.40
2019-02-22T02:15:15.613Z,8.40
2019-02-22T02:17:55.604Z,10.10
2019-02-22T02:20:35.315Z,8.50
2019-02-22T02:23:15.379Z,8.10
2019-02-22T02:25:55.532Z,7.90
2019-02-22T02:28:34.953Z,9.70
2019-02-22T02:31:15.093Z,9.00
2019-02-22T02:33:55.162Z,8.40
2019-02-22T02:36:35.174Z,7.30
2019-02-22T02:39:14.406Z,7.90
2019-02-22T02:41:54.788Z,7.90
2019-02-22T02:44:34.453Z,8.30
2019-02-22T02:47:14.605Z,7.90
2019-02-22T02:49:54.873Z,8.40
2019-02-22T02:52:34.776Z,10.80
2019-02-22T02:55:14.487Z,8.30
2019-02-22T02:57:54.501Z,8.10
2019-02-22T03:00:33.754Z,9.60
2019-02-22T03:03:13.721Z,8.20
2019-02-22T03:06:13.282Z,9.40
2019-02-22T03:08:52.706Z,8.50
2019-02-22T03:11:32.759Z,7.30
2019-02-22T03:14:12.958Z,9.70
2019-02-22T03:16:52.942Z,8.10
2019-02-22T03:19:32.802Z,8.00
2019-02-22T03:22:12.013Z,8.70
2019-02-22T03:24:53.695Z,8.00
2019-02-22T03:27:33.162Z,7.90
2019-02-22T03:30:13.231Z,7.80
2019-02-22T03:32:53.489Z,7.90
2019-02-22T03:35:33.448Z,8.60
2019-02-22T03:38:13.458Z,8.10
2019-02-22T03:40:52.691Z,8.20
2019-02-22T03:43:19.527Z,7.70
2019-02-22T03:46:06.035Z,7.60
2019-02-22T03:48:52.529Z,7.70
2019-02-22T03:51:38.925Z,8.60
2019-02-22T03:54:25.579Z,7.70
2019-02-22T03:57:12.061Z,7.90
2019-02-22T03:59:58.567Z,9.10
2019-02-22T04:02:45.070Z,7.90
2019-02-22T04:05:31.476Z,7.70
2019-02-22T04:08:17.999Z,9.10
2019-02-22T04:11:04.470Z,7.80
2019-02-22T04:13:51.212Z,7.70
2019-02-22T04:16:37.679Z,7.90
2019-02-22T04:19:24.059Z,8.90
2019-02-22T04:22:10.542Z,8.60
2019-02-22T04:24:57.014Z,8.00
2019-02-22T04:27:43.397Z,8.00
2019-02-22T04:30:29.798Z,7.80
2019-02-22T04:33:16.173Z,7.80
2019-02-22T04:36:02.669Z,9.00
2019-02-22T04:38:49.125Z,8.70
2019-02-22T04:41:28.688Z,7.50
2019-02-22T04:44:07.994Z,7.80
2019-02-22T04:46:34.855Z,7.60
2019-02-22T04:49:21.252Z,8.00
2019-02-22T04:52:07.983Z,8.20
2019-02-22T04:54:34.717Z,8.50
2019-02-22T04:57:21.093Z,7.90
2019-02-22T05:00:07.581Z,7.50
2019-02-22T05:02:34.352Z,7.80
2019-02-22T05:05:20.734Z,8.00
2019-02-22T05:08:07.140Z,8.90
2019-02-22T05:10:53.541Z,8.70
2019-02-22T05:13:40.218Z,8.20
2019-02-22T05:16:27.125Z,8.00
2019-02-22T05:19:13.617Z,7.90
2019-02-22T05:22:00.258Z,8.20
2019-02-22T05:24:47.341Z,8.10
2019-02-22T05:27:33.719Z,8.00
2019-02-22T05:30:20.099Z,8.00
2019-02-22T05:33:20.467Z,7.60
2019-02-22T05:36:07.426Z,8.10
2019-02-22T05:38:53.866Z,7.60
2019-02-22T05:41:33.149Z,7.00
2019-02-22T05:44:12.294Z,7.60
2019-02-22T05:47:00.284Z,8.00
2019-02-22T05:49:34.442Z,8.90
2019-02-22T05:52:14.594Z,7.90
2019-02-22T05:54:54.326Z,7.80
2019-02-22T05:57:34.462Z,7.80
2019-02-22T06:00:15.524Z,8.00
2019-02-22T06:02:55.462Z,7.50
2019-02-22T06:05:35.393Z,8.50
2019-02-22T06:08:15.057Z,7.10
2019-02-22T06:10:54.783Z,7.60
2019-02-22T06:13:34.712Z,7.60
2019-02-22T06:16:14.546Z,8.30
2019-02-22T06:18:53.825Z,9.00
2019-02-22T06:21:33.885Z,8.90
2019-02-22T06:24:14.126Z,7.20
2019-02-22T06:26:53.918Z,7.70
2019-02-22T06:29:33.993Z,8.50
2019-02-22T06:32:13.967Z,8.70
2019-02-22T06:34:53.989Z,9.30
2019-02-22T06:37:33.245Z,7.70
2019-02-22T06:40:13.370Z,7.80
2019-02-22T06:42:53.326Z,6.90
2019-02-22T06:45:33.712Z,7.70
2019-02-22T06:48:13.594Z,7.80
2019-02-22T06:50:52.775Z,8.00
2019-02-22T06:53:31.903Z,7.70
2019-02-22T06:56:11.411Z,8.30
2019-02-22T06:58:51.306Z,8.40
2019-02-22T07:01:18.365Z,8.20
2019-02-22T07:03:45.109Z,8.10
2019-02-22T07:06:11.985Z,8.10
2019-02-22T07:08:58.560Z,8.00
2019-02-22T07:11:49.877Z,7.20
2019-02-22T07:14:36.272Z,7.60
2019-02-22T07:17:22.750Z,8.20
2019-02-22T07:20:09.585Z,9.20
2019-02-22T07:22:55.983Z,8.50
2019-02-22T07:25:42.390Z,8.60
2019-02-22T07:28:28.765Z,8.20
2019-02-22T07:31:15.407Z,8.50
2019-02-22T07:33:42.129Z,8.60
2019-02-22T07:36:28.540Z,8.10
2019-02-22T07:39:14.916Z,8.60
2019-02-22T07:41:56.601Z,8.60
2019-02-22T07:44:36.535Z,8.50
2019-02-22T07:47:16.582Z,8.50
2019-02-22T07:49:56.574Z,8.50
2019-02-22T07:52:36.701Z,8.70
2019-02-22T07:55:16.857Z,9.20
2019-02-22T07:57:56.745Z,8.90
2019-02-22T08:00:35.976Z,8.70
2019-02-22T08:06:28.333Z,9.00
2019-02-22T08:09:08.425Z,9.10
2019-02-22T08:11:35.177Z,8.80
2019-02-22T08:17:08.153Z,9.00
2019-02-22T08:19:34.890Z,8.70
2019-02-22T08:22:21.291Z,9.10
2019-02-22T08:25:07.859Z,9.00
2019-02-22T08:27:54.552Z,9.50
2019-02-22T08:30:41.129Z,9.40
2019-02-22T08:33:27.634Z,9.50
2019-02-22T08:36:14.082Z,9.30
2019-02-22T08:39:00.491Z,10.10
2019-02-22T08:41:27.561Z,10.60
2019-02-22T08:44:14.150Z,9.70
2019-02-22T08:47:00.581Z,11.10
2019-02-22T08:49:47.207Z,10.20
2019-02-22T08:52:33.619Z,10.10
2019-02-22T08:58:06.705Z,10.10
2019-02-22T09:00:53.170Z,10.00
2019-02-22T09:03:49.818Z,10.00
2019-02-22T09:06:28.168Z,10.10
2019-02-22T09:09:14.567Z,10.30
2019-02-22T09:12:01.081Z,10.10
2019-02-22T09:17:36.589Z,10.50
2019-02-22T09:20:23.054Z,10.50
2019-02-22T09:22:50.055Z,10.70
2019-02-22T09:25:36.662Z,10.60
2019-02-22T09:28:23.059Z,10.60
2019-02-22T09:31:09.729Z,10.40
2019-02-22T09:33:56.181Z,10.60
2019-02-22T09:36:42.574Z,11.20
2019-02-22T09:39:29.073Z,12.80
2019-02-22T09:42:08.770Z,15.70
2019-02-22T09:44:48.030Z,13.40
2019-02-22T09:50:40.386Z,11.90
2019-02-22T09:53:20.460Z,12.50
2019-02-22T09:56:00.412Z,12.10
2019-02-22T10:01:41.311Z,11.10
2019-02-22T10:07:06.698Z,10.50
2019-02-22T10:09:33.452Z,10.50
2019-02-22T10:12:19.993Z,10.50
2019-02-22T10:15:06.635Z,9.70
2019-02-22T10:20:20.061Z,10.40
2019-02-22T10:23:06.475Z,10.50
2019-02-22T10:25:53.104Z,10.70
2019-02-22T10:31:26.029Z,14.60
2019-02-22T10:34:12.472Z,14.40
2019-02-22T10:36:59.033Z,13.20
2019-02-22T10:39:38.606Z,13.30
2019-02-22T10:45:30.747Z,12.60
2019-02-22T10:48:10.860Z,12.80
2019-02-22T10:50:49.981Z,12.70
2019-02-22T10:53:29.897Z,14.00
2019-02-22T10:56:10.057Z,13.80
2019-02-22T10:58:36.810Z,12.20
2019-02-22T11:01:23.324Z,11.80
2019-02-22T11:04:09.717Z,12.20
2019-02-22T11:17:42.637Z,11.00
2019-02-22T12:04:01.955Z,11.40
2019-02-22T12:09:15.339Z,11.20
2019-02-22T12:12:02.006Z,11.50
2019-02-22T12:14:51.601Z,11.90
2019-02-22T12:17:36.722Z,11.00
2019-02-22T12:20:23.378Z,11.70
2019-02-22T12:23:09.832Z,11.70
2019-02-22T12:25:56.658Z,12.70
2019-02-22T12:28:43.304Z,11.80
2019-02-22T12:31:30.043Z,11.10
2019-02-22T12:34:16.440Z,11.60
2019-02-22T12:37:02.895Z,11.30
2019-02-22T12:39:42.465Z,11.30
2019-02-22T12:42:22.502Z,12.30
2019-02-22T12:45:03.593Z,11.40
2019-02-22T12:47:43.591Z,11.30
2019-02-22T12:50:23.523Z,11.50
2019-02-22T12:53:03.053Z,12.10
2019-02-22T12:55:42.945Z,12.20
2019-02-22T12:58:23.000Z,11.70
2019-02-22T13:01:03.120Z,11.70
2019-02-22T13:06:41.303Z,12.30
2019-02-22T13:09:21.440Z,12.40
2019-02-22T13:12:01.467Z,12.60
2019-02-22T13:14:41.273Z,11.30
2019-02-22T13:17:30.430Z,11.70
2019-02-22T13:20:03.083Z,11.90
2019-02-22T13:22:43.206Z,11.10
2019-02-22T13:25:23.296Z,10.90
2019-02-22T13:28:03.763Z,10.50
2019-02-22T13:30:43.758Z,10.60
2019-02-22T13:33:23.860Z,10.40
2019-02-22T13:36:03.995Z,10.60
2019-02-22T13:38:44.311Z,10.20
2019-02-22T13:41:24.156Z,11.10
2019-02-22T13:44:04.112Z,10.10
2019-02-22T13:46:44.138Z,10.10
2019-02-22T13:52:22.555Z,10.00
2019-02-22T13:55:01.994Z,10.10
2019-02-22T13:57:42.041Z,11.60
2019-02-22T14:00:21.831Z,10.40
2019-02-22T14:03:01.893Z,9.90
2019-02-22T14:05:41.976Z,11.80
2019-02-22T14:08:22.005Z,10.60
2019-02-22T14:11:01.494Z,10.40
2019-02-22T14:13:41.259Z,10.40
2019-02-22T14:16:21.368Z,10.10
2019-02-22T14:19:01.757Z,10.50
2019-02-22T14:21:28.501Z,10.30
2019-02-22T14:24:16.351Z,10.30
2019-02-22T14:27:02.902Z,10.20
2019-02-22T14:29:49.352Z,10.20
2019-02-22T14:32:16.394Z,10.30
2019-02-22T14:35:03.279Z,10.40
2019-02-22T14:37:49.723Z,11.00
2019-02-22T14:40:29.894Z,10.10
2019-02-22T14:43:16.662Z,10.60
2019-02-22T14:45:53.201Z,10.30
2019-02-22T14:48:33.226Z,11.50
2019-02-22T14:51:15.085Z,11.40
2019-02-22T14:53:54.860Z,10.60
2019-02-22T14:56:34.661Z,10.90
2019-02-22T14:59:13.836Z,11.30
2019-02-22T15:01:53.830Z,10.30
2019-02-22T15:04:36.184Z,10.90
2019-02-22T15:07:16.052Z,10.90
2019-02-22T15:09:55.978Z,11.20
2019-02-22T15:12:35.365Z,10.90
2019-02-22T15:15:15.389Z,10.90
2019-02-22T15:17:58.655Z,10.70
2019-02-22T15:20:38.898Z,11.00
2019-02-22T15:23:18.539Z,11.30
2019-02-22T15:25:58.586Z,10.90
2019-02-22T15:28:38.752Z,10.90
2019-02-22T15:31:19.126Z,10.70
2019-02-22T15:33:59.223Z,10.90
2019-02-22T15:36:39.201Z,10.70
2019-02-22T15:39:19.247Z,10.90
2019-02-22T15:41:59.377Z,10.10
2019-02-22T15:44:39.826Z,11.00
2019-02-22T15:47:19.637Z,11.20
2019-02-22T15:49:59.353Z,10.60
2019-02-22T15:52:39.481Z,10.60
2019-02-22T15:55:19.494Z,10.50
2019-02-22T15:57:59.484Z,10.50
2019-02-22T16:00:39.455Z,10.30
2019-02-22T16:03:19.476Z,10.50
2019-02-22T16:05:59.597Z,10.00
2019-02-22T16:08:39.539Z,9.10
2019-02-22T16:11:19.585Z,11.10
2019-02-22T16:19:58.948Z,10.00
2019-02-22T16:22:38.754Z,10.90
2019-02-22T16:37:26.506Z,9.40
2019-02-22T16:54:38.399Z,8.90
2019-02-22T16:57:18.673Z,8.80
2019-02-22T17:02:56.677Z,8.50
2019-02-22T17:05:36.865Z,8.80
2019-02-22T17:25:53.546Z,7.80
2019-02-22T17:28:34.028Z,8.70
2019-02-22T17:31:14.049Z,7.60
2019-02-22T17:33:53.277Z,7.60
2019-02-22T17:36:32.650Z,8.30
2019-02-22T17:39:12.564Z,7.00
2019-02-22T17:41:52.674Z,7.20
2019-02-22T17:44:32.687Z,7.10
2019-02-22T17:47:12.628Z,7.70
2019-02-22T17:49:51.966Z,7.50
2019-02-22T17:52:32.134Z,9.90
2019-02-22T17:55:12.254Z,7.30
2019-02-22T17:57:52.409Z,9.20
2019-02-22T18:00:32.510Z,8.40
2019-02-22T18:03:11.629Z,8.70
2019-02-22T18:05:50.963Z,8.90
2019-02-22T18:08:31.057Z,7.30
2019-02-22T18:11:11.024Z,6.90
2019-02-22T18:13:51.050Z,6.40
2019-02-22T18:16:31.102Z,7.10
2019-02-22T18:19:11.038Z,6.70
2019-02-22T18:21:51.220Z,7.30
2019-02-22T18:24:31.307Z,6.60
2019-02-22T18:27:11.335Z,6.60
2019-02-22T18:29:50.764Z,6.70
2019-02-22T18:32:30.831Z,5.60
2019-02-22T18:35:10.960Z,7.10
2019-02-22T18:37:51.101Z,6.00
2019-02-22T18:40:31.047Z,5.80
2019-02-22T18:43:10.962Z,6.20
2019-02-22T18:45:51.000Z,7.00
2019-02-22T18:48:30.883Z,5.50
2019-02-22T18:51:10.839Z,5.30
2019-02-22T18:53:51.330Z,7.00
2019-02-22T18:56:31.368Z,6.20
2019-02-22T18:58:58.420Z,5.20
2019-02-22T19:01:26.334Z,5.60
2019-02-22T19:04:12.846Z,5.20
2019-02-22T19:06:59.301Z,5.40
2019-02-22T19:09:45.967Z,5.20
2019-02-22T19:12:32.378Z,5.10
2019-02-22T19:15:18.815Z,4.70
2019-02-22T19:18:05.223Z,5.40
2019-02-22T19:20:51.941Z,4.80
2019-02-22T19:23:38.348Z,5.20
2019-02-22T19:26:05.201Z,4.30
2019-02-22T19:28:51.589Z,4.70
2019-02-22T19:31:38.054Z,4.70
2019-02-22T19:34:24.437Z,3.90
2019-02-22T19:36:51.170Z,4.70
2019-02-22T19:39:37.552Z,4.40
2019-02-22T19:42:16.836Z,4.30
2019-02-22T19:44:56.978Z,4.30
2019-02-22T19:47:41.851Z,4.20
2019-02-22T19:50:19.187Z,4.10
2019-02-22T19:52:59.232Z,3.50
2019-02-22T19:55:39.397Z,3.80
2019-02-22T19:58:19.422Z,4.30
2019-02-22T20:00:58.717Z,3.40
2019-02-22T20:03:38.025Z,3.20
2019-02-22T20:06:17.289Z,3.80
2019-02-22T20:08:57.556Z,3.70
2019-02-22T20:11:37.612Z,3.80
2019-02-22T20:14:17.496Z,3.80
2019-02-22T20:16:57.810Z,3.70
2019-02-22T20:19:37.537Z,3.70
2019-02-22T20:22:17.899Z,3.60
2019-02-22T20:24:57.678Z,3.40
2019-02-22T20:27:37.716Z,3.30
2019-02-22T20:30:17.690Z,3.20
2019-02-22T20:32:56.914Z,3.40
2019-02-22T20:35:36.904Z,3.50
2019-02-22T20:38:04.065Z,3.50
2019-02-22T20:40:43.915Z,3.40
2019-02-22T20:43:24.019Z,5.00
2019-02-22T20:46:03.239Z,3.00
2019-02-22T20:48:43.257Z,3.00
2019-02-22T20:51:23.333Z,3.00
2019-02-22T20:54:03.610Z,3.10
2019-02-22T20:56:43.504Z,3.60
2019-02-22T20:59:23.442Z,5.30
2019-02-22T21:02:03.547Z,2.40
2019-02-22T21:04:43.479Z,3.10
2019-02-22T21:07:23.498Z,2.60
2019-02-22T21:10:03.441Z,3.10
2019-02-22T21:12:43.604Z,2.90
2019-02-22T21:15:23.757Z,2.90
2019-02-22T21:18:03.790Z,2.50
2019-02-22T21:20:43.885Z,3.00
2019-02-22T21:23:23.977Z,2.80
2019-02-22T21:26:03.912Z,2.80
2019-02-22T21:28:43.187Z,4.50
2019-02-22T21:31:22.451Z,2.50
2019-02-22T21:34:02.573Z,2.40
2019-02-22T21:36:42.458Z,2.00
2019-02-22T21:39:22.562Z,2.00
2019-02-22T21:42:02.688Z,2.10
2019-02-22T21:44:42.740Z,2.00
2019-02-22T21:47:22.745Z,1.60
2019-02-22T21:50:02.827Z,1.90
2019-02-22T21:52:29.662Z,0.80
2019-02-22T21:55:16.146Z,1.80
2019-02-22T21:58:02.694Z,1.70
2019-02-22T22:00:49.325Z,1.10
2019-02-22T22:03:35.773Z,1.70
2019-02-22T22:06:22.169Z,1.70
2019-02-22T22:09:08.648Z,1.50
2019-02-22T22:11:55.053Z,1.60
2019-02-22T22:14:41.538Z,1.90
2019-02-22T22:17:27.922Z,1.30
2019-02-22T22:20:14.902Z,1.50
2019-02-22T22:23:01.285Z,1.50
2019-02-22T22:25:47.701Z,1.40
2019-02-22T22:28:34.089Z,0.40
2019-02-22T22:31:20.494Z,1.30
2019-02-22T22:34:07.132Z,1.20
2019-02-22T22:36:53.526Z,1.40
2019-02-22T22:39:39.872Z,1.20
2019-02-22T22:42:19.150Z,0.50
2019-02-22T22:44:58.349Z,2.80
2019-02-22T22:47:38.426Z,2.30
2019-02-22T22:50:18.724Z,1.00
2019-02-22T22:52:58.654Z,1.00
2019-02-22T22:55:38.740Z,1.00
2019-02-22T22:58:18.083Z,1.40
2019-02-22T23:01:17.606Z,0.80
2019-02-22T23:03:57.330Z,0.60
2019-02-22T23:06:37.256Z,0.60
2019-02-22T23:09:20.012Z,0.70
2019-02-22T23:11:59.177Z,0.70
2019-02-22T23:14:39.392Z,0.60
2019-02-22T23:17:19.470Z,0.10
2019-02-22T23:19:59.339Z,1.30
2019-02-22T23:22:39.668Z,0.50
2019-02-22T23:25:19.432Z,-0.10
2019-02-22T23:27:59.538Z,0.90
2019-02-22T23:30:38.877Z,-0.30
2019-02-22T23:33:18.170Z,0.80
2019-02-22T23:36:00.203Z,0.90
2019-02-22T23:38:40.203Z,0.40
2019-02-22T23:41:20.164Z,1.20
2019-02-22T23:46:58.564Z,1.40
2019-02-22T23:49:38.510Z,2.30
2019-02-22T23:52:18.801Z,1.60
2019-02-22T23:54:58.825Z,1.70
2019-02-22T23:57:38.589Z,1.60
